To NAV CANADA Home Page Login to a new session Search on AWWS site Feedback and Comments Disclaimer Vers la page française équivalente Tips FAQ What's new on the site To the Forecasts and Observations / NOTAM section To "File a Flight Plan" website Publications and other links Update of the User's profile FIC Telephone Numbers My Weather Data Folder Route Weather Data Regional Weather Data Local Weather Data To the Forecasts and Observations / NOTAM section
Request Generated 08/22/2017 at 03:29:37 UTC . Weather information available at that time is displayed.

METAR/TAF

TRENTON/ON    

METAR CYTR 220300Z 00000KT 7SM SKC 22/21 A3000 RMK SLP159=
METAR CYTR 220200Z 21003KT 10SM SKC 23/21 A3001 RMK SLP163=
METAR CYTR 220100Z 22005KT 12SM FEW240 23/21 A3001 RMK CI2 SLP162=

TAF CYTR 212332Z 2200/2224 21005KT P6SM OVC240
FM221200 19012G22KT P6SM SCT020 BKN060 TEMPO 2212/2216 BKN020
OVC060
FM221600 20018G28KT 6SM -SHRA BR SCT015 OVC060 TEMPO 2216/2222
3SM SHRA BR OVC015 PROB30 2216/2221 VRB25G40KT 1SM +TSRA BR
BKN008 OVC030CB
FM222200 24020G30KT P6SM SCT020 BKN040
BECMG 2222/2224 26010KT
RMK NXT FCST BY 220600Z=
Your time UTC time
Weather data provided by Environment Canada and NAV CANADA